createdAt,value
2019-03-24T00:02:20.568Z,102931.23
2019-03-24T00:05:37.073Z,102930.28
2019-03-24T00:08:48.954Z,102936.78
2019-03-24T00:12:05.404Z,102932.05
2019-03-24T00:15:36.144Z,102933.66
2019-03-24T00:18:48.926Z,102934.11
2019-03-24T00:25:57.518Z,102934.03
2019-03-24T00:29:28.620Z,102929.55
2019-03-24T00:39:59.484Z,102912.10
2019-03-24T00:44:21.212Z,102913.42
2019-03-24T01:02:40.237Z,102896.05
2019-03-24T01:05:50.695Z,102894.36
2019-03-24T01:09:15.419Z,102888.61
2019-03-24T01:12:21.947Z,102883.83
2019-03-24T01:16:13.627Z,102883.52
2019-03-24T01:19:19.135Z,102876.88
2019-03-24T01:22:26.949Z,102880.42
2019-03-24T01:26:11.956Z,102879.97
2019-03-24T01:33:11.091Z,102883.09
2019-03-24T01:36:16.905Z,102885.77
2019-03-24T01:39:48.454Z,102882.09
2019-03-24T01:43:14.463Z,102879.66
2019-03-24T01:47:01.505Z,102883.70
2019-03-24T01:50:08.454Z,102881.55
2019-03-24T01:53:21.676Z,102873.65
2019-03-24T02:04:54.461Z,102876.33
2019-03-24T02:08:26.846Z,102880.65
2019-03-24T02:12:32.479Z,102877.90
2019-03-24T02:20:24.576Z,102872.92
2019-03-24T02:42:53.855Z,102855.84
2019-03-24T02:45:59.785Z,102847.20
2019-03-24T02:49:48.509Z,102834.03
2019-03-24T02:53:47.899Z,102834.03
2019-03-24T02:57:42.501Z,102836.66
2019-03-24T03:05:03.229Z,102834.73
2019-03-24T03:08:12.259Z,102831.24
2019-03-24T03:11:34.394Z,102826.80
2019-03-24T03:14:48.342Z,102825.11
2019-03-24T03:21:24.698Z,102830.41
2019-03-24T03:24:29.517Z,102830.49
2019-03-24T03:27:34.435Z,102825.72
2019-03-24T03:30:39.255Z,102817.33
2019-03-24T03:33:44.104Z,102815.06
2019-03-24T03:36:48.910Z,102804.61
2019-03-24T03:39:57.833Z,102795.02
2019-03-24T03:43:00.370Z,102797.69
2019-03-24T03:46:05.275Z,102800.88
2019-03-24T03:49:10.100Z,102793.39
2019-03-24T03:52:14.936Z,102794.27
2019-03-24T03:55:19.741Z,102797.42
2019-03-24T03:58:24.564Z,102794.72
2019-03-24T04:01:29.388Z,102796.55
2019-03-24T04:04:34.229Z,102793.96
2019-03-24T04:07:39.060Z,102798.44
2019-03-24T04:10:43.872Z,102793.92
2019-03-24T04:13:48.703Z,102798.96
2019-03-24T04:17:06.375Z,102794.81
2019-03-24T04:20:01.356Z,102796.10
2019-03-24T04:23:06.169Z,102794.41
2019-03-24T04:26:11.053Z,102794.86
2019-03-24T04:29:17.586Z,102803.14
2019-03-24T04:32:22.374Z,102803.09
2019-03-24T04:35:27.230Z,102799.71
2019-03-24T04:38:32.004Z,102797.88
2019-03-24T04:41:36.822Z,102786.09
2019-03-24T04:44:41.672Z,102787.89
2019-03-24T04:47:46.507Z,102794.48
2019-03-24T04:50:51.329Z,102783.67
2019-03-24T04:53:56.159Z,102783.11
2019-03-24T04:57:01.167Z,102773.05
2019-03-24T05:00:06.767Z,102768.77
2019-03-24T05:03:11.605Z,102765.50
2019-03-24T05:06:17.328Z,102757.25
2019-03-24T05:09:22.128Z,102754.65
2019-03-24T05:12:26.938Z,102759.92
2019-03-24T05:15:31.836Z,102759.13
2019-03-24T05:18:36.643Z,102759.99
2019-03-24T05:21:41.462Z,102756.87
2019-03-24T05:24:46.274Z,102752.70
2019-03-24T05:27:51.086Z,102762.79
2019-03-24T05:30:55.921Z,102764.38
2019-03-24T05:34:00.725Z,102761.18
2019-03-24T05:37:05.585Z,102764.98
2019-03-24T05:40:10.546Z,102767.12
2019-03-24T05:43:17.636Z,102759.79
2019-03-24T05:46:23.908Z,102754.98
2019-03-24T05:49:28.729Z,102753.52
2019-03-24T05:52:33.544Z,102751.78
2019-03-24T05:55:38.346Z,102743.42
2019-03-24T05:58:43.186Z,102739.22
2019-03-24T06:01:47.998Z,102732.67
2019-03-24T06:04:52.817Z,102736.84
2019-03-24T06:07:57.640Z,102735.37
2019-03-24T06:11:02.458Z,102726.69
2019-03-24T06:14:10.023Z,102722.24
2019-03-24T06:17:14.834Z,102727.13
2019-03-24T06:20:19.649Z,102725.96
2019-03-24T06:23:24.466Z,102725.17
2019-03-24T06:26:29.265Z,102723.72
2019-03-24T06:29:34.072Z,102726.73
2019-03-24T06:32:41.445Z,102721.47
2019-03-24T06:35:46.267Z,102718.07
2019-03-24T06:38:51.114Z,102715.95
2019-03-24T06:41:55.974Z,102712.52
2019-03-24T06:45:00.801Z,102706.98
2019-03-24T06:48:05.638Z,102706.83
2019-03-24T06:51:10.468Z,102712.23
2019-03-24T06:54:15.266Z,102713.52
2019-03-24T06:57:20.086Z,102711.44
2019-03-24T07:00:24.901Z,102709.39
2019-03-24T07:03:29.742Z,102718.23
2019-03-24T07:06:34.853Z,102705.19
2019-03-24T07:09:39.676Z,102697.02
2019-03-24T07:12:46.381Z,102696.70
2019-03-24T07:15:51.209Z,102683.06
2019-03-24T07:18:56.032Z,102680.20
2019-03-24T07:22:00.845Z,102677.69
2019-03-24T07:25:06.032Z,102664.87
2019-03-24T07:28:10.863Z,102658.16
2019-03-24T07:31:15.686Z,102667.02
2019-03-24T07:34:20.508Z,102668.47
2019-03-24T07:37:25.316Z,102674.80
2019-03-24T07:40:30.149Z,102681.16
2019-03-24T07:43:36.189Z,102673.72
2019-03-24T07:46:41.016Z,102674.26
2019-03-24T07:49:45.859Z,102667.27
2019-03-24T07:52:50.792Z,102668.34
2019-03-24T07:55:55.628Z,102663.34
2019-03-24T07:59:00.467Z,102661.22
2019-03-24T08:02:05.331Z,102656.75
2019-03-24T08:05:10.237Z,102657.00
2019-03-24T08:08:15.140Z,102657.08
2019-03-24T08:11:19.996Z,102648.27
2019-03-24T08:14:24.818Z,102645.12
2019-03-24T08:17:29.664Z,102649.48
2019-03-24T08:20:34.490Z,102637.30
2019-03-24T08:23:39.332Z,102640.97
2019-03-24T08:26:47.216Z,102645.17
2019-03-24T08:29:52.068Z,102640.06
2019-03-24T08:32:56.919Z,102636.90
2019-03-24T08:36:01.803Z,102632.88
2019-03-24T08:39:07.272Z,102630.42
2019-03-24T08:42:12.098Z,102625.25
2019-03-24T08:45:26.174Z,102619.22
2019-03-24T08:48:40.508Z,102613.71
2019-03-24T08:51:37.657Z,102605.63
2019-03-24T08:54:42.546Z,102600.23
2019-03-24T08:57:47.414Z,102608.80
2019-03-24T09:00:52.289Z,102611.27
2019-03-24T09:03:57.123Z,102618.00
2019-03-24T09:07:01.959Z,102615.08
2019-03-24T09:10:07.413Z,102612.20
2019-03-24T09:13:12.246Z,102619.34
2019-03-24T09:16:17.072Z,102620.91
2019-03-24T09:19:22.508Z,102613.45
2019-03-24T09:22:27.725Z,102591.88
2019-03-24T09:25:35.792Z,102581.07
2019-03-24T09:28:59.767Z,102565.42
2019-03-24T09:32:08.131Z,102569.86
2019-03-24T09:35:15.318Z,102567.85
2019-03-24T09:38:22.301Z,102558.58
2019-03-24T09:41:27.441Z,102557.16
2019-03-24T09:44:32.477Z,102551.63
2019-03-24T09:47:37.566Z,102547.97
2019-03-24T09:50:43.258Z,102541.02
2019-03-24T09:53:48.535Z,102538.91
2019-03-24T09:56:53.679Z,102541.87
2019-03-24T09:59:58.985Z,102528.88
2019-03-24T10:03:19.291Z,102521.09
2019-03-24T10:06:27.945Z,102516.92
2019-03-24T10:10:08.742Z,102515.53
2019-03-24T10:13:13.879Z,102509.39
2019-03-24T10:20:17.162Z,102504.72
2019-03-24T10:23:42.408Z,102510.52
2019-03-24T10:26:52.017Z,102496.89
2019-03-24T10:30:17.665Z,102493.50
2019-03-24T10:33:27.670Z,102482.20
2019-03-24T10:36:52.902Z,102481.42
2019-03-24T10:51:40.612Z,102466.89
2019-03-24T10:54:45.980Z,102456.17
2019-03-24T10:57:54.151Z,102449.38
2019-03-24T11:01:01.176Z,102454.52
2019-03-24T11:04:34.249Z,102443.59
2019-03-24T11:07:46.731Z,102441.22
2019-03-24T11:11:25.720Z,102430.36
2019-03-24T11:22:34.140Z,102424.63
2019-03-24T11:25:38.970Z,102428.27
2019-03-24T11:28:53.997Z,102421.63
2019-03-24T11:36:07.668Z,102407.66
2019-03-24T11:39:16.078Z,102393.88
2019-03-24T11:42:42.827Z,102388.75
2019-03-24T11:45:48.581Z,102383.95
2019-03-24T11:48:57.182Z,102380.88
2019-03-24T11:52:06.665Z,102370.20
2019-03-24T11:55:31.035Z,102363.02
2019-03-24T11:58:39.506Z,102358.66
2019-03-24T12:02:39.156Z,102359.06
2019-03-24T12:06:13.689Z,102358.60
2019-03-24T12:13:49.177Z,102355.37
2019-03-24T12:16:55.931Z,102337.31
2019-03-24T12:20:01.205Z,102337.39
2019-03-24T12:23:09.529Z,102334.34
2019-03-24T12:26:59.151Z,102326.84
2019-03-24T12:30:24.135Z,102320.61
2019-03-24T12:34:13.384Z,102316.25
2019-03-24T12:38:26.920Z,102309.61
2019-03-24T12:41:58.824Z,102312.59
2019-03-24T12:45:19.495Z,102304.20
2019-03-24T12:48:49.011Z,102296.77
2019-03-24T12:52:32.141Z,102286.98
2019-03-24T12:55:40.050Z,102280.73
2019-03-24T12:58:46.717Z,102280.39
2019-03-24T13:02:07.303Z,102271.94
2019-03-24T13:09:05.327Z,102260.50
2019-03-24T13:16:26.419Z,102241.95
2019-03-24T13:23:32.703Z,102224.20
2019-03-24T13:34:54.883Z,102201.61
2019-03-24T13:38:25.280Z,102192.33
2019-03-24T13:41:54.894Z,102195.38
2019-03-24T13:45:08.204Z,102180.34
2019-03-24T13:48:16.644Z,102175.91
2019-03-24T13:51:24.862Z,102169.74
2019-03-24T14:02:58.705Z,102156.89
2019-03-24T14:06:30.890Z,102152.48
2019-03-24T14:09:48.416Z,102142.27
2019-03-24T14:13:49.867Z,102145.39
2019-03-24T14:17:01.047Z,102142.28
2019-03-24T14:20:21.580Z,102142.27
2019-03-24T14:23:33.936Z,102139.17
2019-03-24T14:26:40.552Z,102142.17
2019-03-24T14:30:39.868Z,102136.38
2019-03-24T14:34:26.095Z,102135.00
2019-03-24T14:37:41.091Z,102129.27
2019-03-24T14:41:26.301Z,102129.27
2019-03-24T14:44:50.382Z,102123.56
2019-03-24T14:48:42.675Z,102107.23
2019-03-24T14:51:52.449Z,102107.25
2019-03-24T14:54:58.025Z,102103.67
2019-03-24T14:58:51.646Z,102101.03
2019-03-24T15:01:58.559Z,102087.73
2019-03-24T15:05:04.545Z,102076.69
2019-03-24T15:08:29.148Z,102073.61
2019-03-24T15:16:07.143Z,102068.33
2019-03-24T15:19:50.109Z,102068.72
2019-03-24T15:22:54.995Z,102067.31
2019-03-24T15:26:02.795Z,102058.08
2019-03-24T15:29:07.675Z,102052.34
2019-03-24T15:32:12.509Z,102053.23
2019-03-24T15:35:17.370Z,102047.45
2019-03-24T15:38:23.972Z,102039.97
2019-03-24T15:41:28.823Z,102044.84
2019-03-24T15:44:33.695Z,102042.16
2019-03-24T15:47:38.569Z,102038.55
2019-03-24T15:50:43.426Z,102032.91
2019-03-24T15:53:48.269Z,102027.20
2019-03-24T15:56:53.115Z,102018.36
2019-03-24T15:59:57.951Z,102013.00
2019-03-24T16:03:04.438Z,102007.66
2019-03-24T16:06:09.277Z,102005.86
2019-03-24T16:09:14.122Z,102000.58
2019-03-24T16:12:18.957Z,101994.34
2019-03-24T16:15:23.811Z,101996.55
2019-03-24T16:18:28.720Z,101991.23
2019-03-24T16:21:33.625Z,101990.38
2019-03-24T16:24:39.653Z,101992.09
2019-03-24T16:27:44.518Z,101980.47
2019-03-24T16:30:49.375Z,101984.02
2019-03-24T16:33:54.235Z,101985.85
2019-03-24T16:36:59.198Z,101974.66
2019-03-24T16:40:04.077Z,101973.67
2019-03-24T16:43:08.936Z,101972.81
2019-03-24T16:46:13.834Z,101966.66
2019-03-24T16:49:18.710Z,101978.08
2019-03-24T16:52:23.550Z,101971.12
2019-03-24T16:55:28.490Z,101959.55
2019-03-24T16:58:33.340Z,101957.77
2019-03-24T17:01:38.190Z,101954.69
2019-03-24T17:04:43.048Z,101951.18
2019-03-24T17:07:47.910Z,101951.08
2019-03-24T17:10:54.130Z,101944.50
2019-03-24T17:13:58.970Z,101946.19
2019-03-24T17:17:07.003Z,101935.60
2019-03-24T17:20:12.043Z,101932.98
2019-03-24T17:23:18.304Z,101921.55
2019-03-24T17:26:24.445Z,101917.45
2019-03-24T17:29:29.314Z,101916.12
2019-03-24T17:32:35.052Z,101913.08
2019-03-24T17:35:39.980Z,101912.00
2019-03-24T17:38:44.877Z,101893.42
2019-03-24T17:41:49.749Z,101892.14
2019-03-24T17:44:54.620Z,101895.25
2019-03-24T17:47:59.462Z,101896.17
2019-03-24T17:51:04.326Z,101890.81
2019-03-24T17:54:09.271Z,101891.63
2019-03-24T17:57:14.155Z,101886.77
2019-03-24T18:00:22.506Z,101881.02
2019-03-24T18:03:27.513Z,101878.45
2019-03-24T18:06:32.351Z,101876.63
2019-03-24T18:09:43.590Z,101878.53
2019-03-24T18:12:51.325Z,101868.81
2019-03-24T18:15:56.255Z,101870.48
2019-03-24T18:19:01.225Z,101868.81
2019-03-24T18:22:11.487Z,101861.66
2019-03-24T18:25:12.857Z,101862.47
2019-03-24T18:28:17.958Z,101851.91
2019-03-24T18:31:22.912Z,101851.05
2019-03-24T18:34:27.852Z,101848.02
2019-03-24T18:37:32.777Z,101840.98
2019-03-24T18:40:37.642Z,101828.19
2019-03-24T18:43:42.604Z,101833.28
2019-03-24T18:46:47.507Z,101827.95
2019-03-24T18:49:52.424Z,101825.31
2019-03-24T18:52:57.400Z,101829.23
2019-03-24T18:56:02.452Z,101819.69
2019-03-24T18:59:07.659Z,101810.83
2019-03-24T19:02:12.595Z,101803.33
2019-03-24T19:05:17.653Z,101805.08
2019-03-24T19:08:22.555Z,101797.95
2019-03-24T19:11:27.460Z,101794.77
2019-03-24T19:14:32.393Z,101797.06
2019-03-24T19:17:37.366Z,101782.92
2019-03-24T19:20:42.406Z,101774.92
2019-03-24T19:23:47.446Z,101773.22
2019-03-24T19:26:52.564Z,101764.01
2019-03-24T19:29:57.554Z,101750.30
2019-03-24T19:33:02.590Z,101743.23
2019-03-24T19:36:08.668Z,101736.97
2019-03-24T19:39:13.783Z,101729.94
2019-03-24T19:42:18.813Z,101725.42
2019-03-24T19:45:23.879Z,101722.74
2019-03-24T19:48:29.115Z,101713.45
2019-03-24T19:51:36.901Z,101718.83
2019-03-24T19:54:41.959Z,101714.34
2019-03-24T19:57:48.147Z,101711.20
2019-03-24T20:00:53.183Z,101698.94
2019-03-24T20:03:58.219Z,101687.44
2019-03-24T20:07:04.355Z,101694.52
2019-03-24T20:10:18.765Z,101675.57
2019-03-24T20:13:23.860Z,101672.00
2019-03-24T20:16:28.871Z,101662.29
2019-03-24T20:19:33.962Z,101657.40
2019-03-24T20:22:41.861Z,101653.44
2019-03-24T20:25:46.942Z,101639.06
2019-03-24T20:28:51.946Z,101626.63
2019-03-24T20:31:57.009Z,101621.78
2019-03-24T20:35:02.097Z,101614.21
2019-03-24T20:38:07.165Z,101604.47
2019-03-24T20:41:12.176Z,101593.11
2019-03-24T20:44:17.227Z,101593.20
2019-03-24T20:47:22.258Z,101591.41
2019-03-24T20:50:29.002Z,101591.83
2019-03-24T20:53:33.952Z,101582.68
2019-03-24T20:59:54.000Z,101567.28
2019-03-24T21:02:58.936Z,101564.17
2019-03-24T21:06:04.094Z,101562.05
2019-03-24T21:09:09.624Z,101555.37
2019-03-24T21:12:14.550Z,101544.43
2019-03-24T21:15:20.354Z,101538.33
2019-03-24T21:18:27.466Z,101525.11
2019-03-24T21:21:32.515Z,101522.50
2019-03-24T21:24:37.488Z,101509.42
2019-03-24T21:27:45.527Z,101494.42
2019-03-24T21:30:50.465Z,101487.40
2019-03-24T21:33:56.563Z,101486.12
2019-03-24T21:37:01.451Z,101468.97
2019-03-24T21:40:06.849Z,101454.00
2019-03-24T21:43:11.691Z,101450.06
2019-03-24T21:46:16.573Z,101447.86
2019-03-24T21:49:21.457Z,101425.86
2019-03-24T21:52:26.347Z,101421.10
2019-03-24T21:55:31.273Z,101411.38
2019-03-24T21:58:36.253Z,101399.04
2019-03-24T22:01:41.292Z,101385.87
2019-03-24T22:04:46.140Z,101379.26
2019-03-24T22:07:51.003Z,101376.22
2019-03-24T22:10:55.898Z,101358.60
2019-03-24T22:14:00.832Z,101354.17
2019-03-24T22:17:05.753Z,101341.02
2019-03-24T22:20:10.647Z,101329.55
2019-03-24T22:23:15.476Z,101331.33
2019-03-24T22:26:20.312Z,101319.44
2019-03-24T22:29:25.334Z,101299.19
2019-03-24T22:32:30.291Z,101303.59
2019-03-24T22:35:35.311Z,101283.77
2019-03-24T22:38:40.296Z,101276.73
2019-03-24T22:41:45.447Z,101275.85
2019-03-24T22:44:50.428Z,101261.73
2019-03-24T22:47:55.417Z,101246.83
2019-03-24T22:51:00.504Z,101236.69
2019-03-24T22:54:05.355Z,101220.86
2019-03-24T22:57:10.215Z,101214.25
2019-03-24T23:00:21.015Z,101201.08
2019-03-24T23:03:26.951Z,101193.17
2019-03-24T23:06:31.893Z,101180.35
2019-03-24T23:09:36.936Z,101161.44
2019-03-24T23:12:41.859Z,101164.58
2019-03-24T23:15:46.996Z,101151.38
2019-03-24T23:18:51.827Z,101148.27
2019-03-24T23:21:56.933Z,101129.83
2019-03-24T23:25:01.791Z,101120.59
2019-03-24T23:28:07.347Z,101120.62
2019-03-24T23:31:12.288Z,101110.48
2019-03-24T23:34:17.310Z,101092.91
2019-03-24T23:37:22.267Z,101077.95
2019-03-24T23:40:27.508Z,101069.60
2019-03-24T23:43:32.505Z,101059.47
2019-03-24T23:46:37.362Z,101050.20
2019-03-24T23:49:45.276Z,101029.55
2019-03-24T23:52:50.210Z,101036.61
2019-03-24T23:55:55.169Z,101020.31
2019-03-24T23:59:00.060Z,100999.67
